Capitol Logistics 93




KLAX
Los Angeles International Airport
Los Angeles, California
RJAA
Tokyo-Narita International Airport
Tokyo,

Activity Log

Date Flight Route Aircraft Duration
No Flights Yet

Route Details

Aircraft Information
Group: Large Widebodies
Types: B744,MD11
Route Data
Demand: L
Distance: 4732nm
Duration: 10h 52m
Recm'd Route: SUMMR2 MCKEY LIBBO BRINY ALCOA BUTEN BOSKE 3600N/14000W 3500N/15000W 3500N/16000W 3500N/17000W 3500N/17500W 3500N/18000E 3500N/17500E 3500N/17000E 3500N/16500E 3500N/16000E 3500N/15500E 3500N/15000E SEALS OTR13 LAPIL Y811 POROT Y809 SUPOK
Origin Wx: KLAX 270553Z 24004KT 10SM SCT015 BKN020 17/12 A3003 RMK AO2 SLP165 T01670117 10189 20161 51010
Dest. Wx: RJAA 270630Z 15011KT 9999 FEW010 SCT020 BKN/// 22/19 Q0997 NOSIG RMK 1CU010 4CU020 A2945
Notes:

Financial History
Total Freight: 0lbs
Average Load: 0lbs/flt
Fuel Used: 0lbs
Avg. Fuel Used: 0lbs/flt
Fuel Expense: $0
Avg. Fuel Expense: $0
Avg. Fuel Cost: $0/lbs
Total Gross Income: $0
Pilot Pay: $0
Total Expenses: $0
Total Revenue: $0
Average Revenue: $0